createdAt,value
2023-01-10T02:11:23.983Z,5.40
2023-01-10T02:13:51.341Z,5.60
2023-01-10T02:16:18.538Z,5.80
2023-01-10T02:18:45.546Z,4.40
2023-01-10T02:21:15.668Z,6.50
2023-01-10T02:24:04.527Z,6.20
2023-01-10T02:26:42.627Z,5.60
2023-01-10T02:29:46.621Z,5.50
2023-01-10T02:32:28.606Z,5.90
2023-01-10T02:35:11.154Z,5.10
2023-01-10T02:37:44.417Z,6.60
2023-01-10T02:40:30.643Z,6.90
2023-01-10T02:43:10.142Z,6.60
2023-01-10T02:45:49.853Z,6.30
2023-01-10T02:48:17.449Z,7.00
2023-01-10T02:50:52.151Z,6.80
2023-01-10T02:53:23.628Z,5.80
2023-01-10T02:56:03.945Z,5.90
2023-01-10T02:58:39.020Z,6.50
2023-01-10T03:01:09.808Z,7.80
2023-01-10T03:03:46.428Z,7.30
2023-01-10T03:06:24.007Z,6.10
2023-01-10T03:08:58.980Z,6.90
2023-01-10T03:11:39.491Z,6.80
2023-01-10T03:14:14.291Z,8.20
2023-01-10T03:16:41.824Z,7.10
2023-01-10T03:19:13.104Z,5.60
2023-01-10T03:21:40.467Z,6.70
2023-01-10T03:24:13.575Z,6.00
2023-01-10T03:26:47.983Z,6.10
2023-01-10T03:29:21.942Z,6.80
2023-01-10T03:31:52.160Z,6.60
2023-01-10T03:34:19.217Z,7.20
2023-01-10T03:37:03.768Z,7.80
2023-01-10T03:39:34.916Z,7.60
2023-01-10T03:42:17.388Z,7.70
2023-01-10T03:45:01.505Z,7.70
2023-01-10T03:47:41.202Z,5.80
2023-01-10T03:50:14.919Z,6.90
2023-01-10T03:52:41.859Z,6.50
2023-01-10T03:55:13.518Z,6.00
2023-01-10T03:57:45.031Z,5.50
2023-01-10T04:00:12.890Z,6.70
2023-01-10T04:02:39.570Z,7.90
2023-01-10T04:05:07.256Z,6.00
2023-01-10T04:07:34.408Z,6.00
2023-01-10T04:10:01.170Z,6.10
2023-01-10T04:12:27.909Z,6.60
2023-01-10T04:14:55.273Z,7.30
2023-01-10T04:17:22.159Z,6.50
2023-01-10T04:19:49.066Z,6.80
2023-01-10T04:22:16.010Z,8.10
2023-01-10T04:24:43.692Z,5.90
2023-01-10T04:27:10.935Z,7.80
2023-01-10T04:29:38.192Z,7.20
2023-01-10T04:32:05.040Z,7.50
2023-01-10T04:34:34.987Z,6.20
2023-01-10T04:37:01.909Z,6.70
2023-01-10T04:39:29.385Z,8.20
2023-01-10T04:41:56.634Z,6.00
2023-01-10T04:44:23.493Z,4.40
2023-01-10T04:46:50.216Z,6.50
2023-01-10T04:49:17.030Z,6.00
2023-01-10T04:51:43.815Z,5.80
2023-01-10T04:54:10.626Z,7.40
2023-01-10T04:56:37.423Z,7.30
2023-01-10T04:59:05.997Z,5.90
2023-01-10T05:01:34.890Z,7.80
2023-01-10T05:04:02.865Z,7.70
2023-01-10T05:06:29.612Z,5.70
2023-01-10T05:08:56.970Z,6.10
2023-01-10T05:11:23.978Z,6.60
2023-01-10T05:13:50.877Z,6.90
2023-01-10T05:16:18.186Z,7.00
2023-01-10T05:18:44.979Z,6.30
2023-01-10T05:21:12.691Z,5.80
2023-01-10T05:23:39.445Z,9.70
2023-01-10T05:26:11.076Z,7.40
2023-01-10T05:28:38.377Z,7.80
2023-01-10T05:31:06.479Z,9.20
2023-01-10T05:33:33.907Z,10.10
2023-01-10T05:36:01.920Z,8.90
2023-01-10T05:38:29.585Z,9.60
2023-01-10T05:40:58.911Z,7.20
2023-01-10T05:43:25.946Z,15.70
2023-01-10T05:45:52.829Z,10.30
2023-01-10T05:48:19.657Z,9.00
2023-01-10T05:50:46.381Z,6.00
2023-01-10T05:53:13.339Z,7.10
2023-01-10T05:55:40.286Z,8.70
2023-01-10T05:58:07.750Z,6.80
2023-01-10T06:00:35.505Z,7.30
2023-01-10T06:03:03.048Z,6.30
2023-01-10T06:05:30.957Z,6.00
2023-01-10T06:07:59.162Z,9.00
2023-01-10T11:55:46.410Z,4.90
2023-01-10T11:58:14.562Z,3.80
2023-01-10T12:00:48.245Z,4.30
2023-01-10T12:03:28.702Z,4.40
2023-01-10T12:06:06.239Z,4.90
2023-01-10T12:08:37.596Z,6.00
2023-01-10T12:11:31.019Z,4.50
2023-01-10T12:13:59.528Z,4.90
2023-01-10T12:16:28.368Z,5.10
2023-01-10T12:18:59.752Z,5.30
2023-01-10T12:21:42.917Z,4.20
2023-01-10T12:24:15.783Z,4.10
2023-01-10T12:26:42.572Z,3.60
2023-01-10T12:29:15.921Z,4.70
2023-01-10T12:31:42.799Z,4.10
2023-01-10T12:34:14.982Z,4.70
2023-01-10T12:36:55.518Z,5.40
2023-01-10T12:39:24.188Z,6.10
2023-01-10T12:42:50.555Z,4.00
2023-01-10T12:45:28.799Z,4.80
2023-01-10T12:48:01.645Z,4.80
2023-01-10T12:50:32.089Z,4.70
2023-01-10T12:52:58.971Z,5.90
2023-01-10T12:55:28.559Z,4.50
2023-01-10T12:58:00.777Z,5.30
2023-01-10T13:00:47.870Z,5.70
2023-01-10T13:03:19.444Z,4.30
2023-01-10T13:05:48.892Z,4.50
2023-01-10T13:08:17.531Z,6.60
2023-01-10T13:10:45.489Z,4.20
2023-01-10T13:13:36.405Z,4.30
2023-01-10T13:16:09.695Z,4.90
2023-01-10T13:18:36.829Z,4.10
2023-01-10T13:21:08.487Z,5.30
2023-01-10T13:23:58.337Z,5.30
2023-01-10T13:26:25.199Z,4.40
2023-01-10T13:28:59.076Z,7.70
2023-01-10T13:31:32.950Z,4.70
2023-01-10T13:34:06.586Z,4.20
2023-01-10T13:36:38.165Z,6.30
2023-01-10T13:39:08.274Z,4.40
2023-01-10T13:42:33.603Z,4.30
2023-01-10T13:45:03.203Z,4.90
2023-01-10T13:47:40.921Z,4.70
2023-01-10T13:50:24.042Z,4.50
2023-01-10T13:53:12.351Z,5.50
2023-01-10T13:55:41.757Z,4.40
2023-01-10T13:58:40.435Z,5.50
2023-01-10T14:01:44.959Z,5.70
2023-01-10T14:04:31.411Z,3.90
2023-01-10T14:06:58.931Z,5.00
2023-01-10T14:09:35.557Z,4.30
2023-01-10T14:12:04.566Z,5.60
2023-01-10T14:14:38.756Z,4.70
2023-01-10T14:17:13.025Z,5.50
2023-01-10T14:19:42.998Z,5.50
2023-01-10T14:22:30.511Z,3.70
2023-01-10T14:25:02.761Z,4.00
2023-01-10T14:27:50.335Z,3.10
2023-01-10T14:30:20.565Z,3.70
2023-01-10T14:32:50.630Z,5.10
2023-01-10T14:35:22.539Z,5.00
2023-01-10T14:37:57.164Z,5.20
2023-01-10T14:40:43.762Z,4.10
2023-01-10T14:43:15.730Z,6.40
2023-01-10T14:45:58.147Z,5.40
2023-01-10T14:48:26.779Z,5.20
2023-01-10T14:51:25.821Z,4.60
2023-01-10T14:53:57.713Z,4.60
2023-01-10T14:56:48.827Z,3.90
2023-01-10T14:59:30.227Z,5.20
2023-01-10T15:02:10.942Z,4.60
2023-01-10T15:04:38.378Z,5.00
2023-01-10T15:07:12.577Z,4.60
2023-01-10T15:09:39.434Z,5.40
2023-01-10T15:12:07.623Z,4.60
2023-01-10T15:14:36.052Z,4.70
2023-01-10T15:17:05.573Z,4.60
2023-01-10T15:19:34.772Z,5.20
2023-01-10T15:22:02.961Z,7.30
2023-01-10T15:24:35.136Z,4.90
2023-01-10T15:27:08.207Z,5.40
2023-01-10T15:29:36.431Z,4.90
2023-01-10T15:32:33.869Z,4.50
2023-01-10T15:35:01.257Z,4.60
2023-01-10T15:37:37.672Z,4.30
2023-01-10T15:40:05.988Z,5.70
2023-01-10T15:42:34.799Z,5.00
2023-01-10T15:45:27.271Z,4.80
2023-01-10T15:48:02.411Z,5.10
2023-01-10T15:50:38.153Z,5.50
2023-01-10T15:53:09.755Z,4.70
2023-01-10T15:55:55.323Z,5.90
2023-01-10T15:58:34.566Z,5.00
2023-01-10T16:01:01.761Z,5.70
2023-01-10T16:03:33.915Z,4.80
2023-01-10T22:23:32.891Z,7.30
2023-01-10T22:26:10.452Z,7.50
2023-01-10T22:28:37.373Z,7.90
2023-01-10T22:31:04.396Z,7.90
2023-01-10T22:33:32.862Z,6.80
2023-01-10T22:36:07.267Z,7.20
2023-01-10T22:38:34.458Z,12.50
2023-01-10T22:41:18.327Z,6.90
2023-01-10T22:43:45.253Z,8.10
2023-01-10T22:46:15.942Z,8.60
2023-01-10T22:48:43.346Z,7.70
2023-01-10T22:51:10.640Z,8.20
2023-01-10T22:53:37.642Z,8.40
2023-01-10T22:56:05.948Z,7.80
2023-01-10T22:58:33.279Z,6.80
2023-01-10T23:01:03.569Z,7.40
2023-01-10T23:03:30.461Z,8.00
2023-01-10T23:05:57.726Z,7.90
2023-01-10T23:08:25.729Z,7.70
2023-01-10T23:10:54.208Z,6.80
2023-01-10T23:13:22.372Z,7.70
2023-01-10T23:15:59.535Z,6.90
2023-01-10T23:18:26.700Z,7.70
2023-01-10T23:20:53.891Z,9.00
2023-01-10T23:23:20.898Z,7.40
2023-01-10T23:26:01.622Z,6.80
2023-01-10T23:28:33.592Z,7.20
2023-01-10T23:31:00.577Z,7.40
2023-01-10T23:33:27.524Z,8.80
2023-01-10T23:35:54.484Z,7.70
2023-01-10T23:38:21.427Z,7.60
2023-01-10T23:40:48.379Z,6.40
2023-01-10T23:43:15.333Z,7.20
2023-01-10T23:45:43.611Z,6.90
2023-01-10T23:48:11.535Z,8.60
2023-01-10T23:50:38.536Z,7.00
2023-01-10T23:53:06.007Z,7.30
2023-01-10T23:55:33.160Z,7.20
2023-01-10T23:58:00.412Z,8.70
